sensor_id;sensor_type;location;lat;lon;timestamp;P1;durP1;ratioP1;P2;durP2;ratioP2
50483;SDS011;36409;52.168;20.878;2022-11-15T00:03:02;48.23;;;28.47;;
50483;SDS011;36409;52.168;20.878;2022-11-15T00:05:49;45.57;;;28.00;;
50483;SDS011;36409;52.168;20.878;2022-11-15T00:08:41;50.53;;;30.27;;
50483;SDS011;36409;52.168;20.878;2022-11-15T00:11:37;51.57;;;29.53;;
50483;SDS011;36409;52.168;20.878;2022-11-15T00:14:25;54.37;;;31.47;;
50483;SDS011;36409;52.168;20.878;2022-11-15T00:17:13;54.50;;;31.50;;
50483;SDS011;36409;52.168;20.878;2022-11-15T00:20:02;54.67;;;32.50;;
50483;SDS011;36409;52.168;20.878;2022-11-15T00:22:51;50.53;;;31.60;;
50483;SDS011;36409;52.168;20.878;2022-11-15T00:25:42;53.67;;;32.37;;
50483;SDS011;36409;52.168;20.878;2022-11-15T00:28:30;59.30;;;32.10;;
50483;SDS011;36409;52.168;20.878;2022-11-15T00:31:18;57.83;;;32.73;;
50483;SDS011;36409;52.168;20.878;2022-11-15T00:34:06;52.03;;;31.80;;
50483;SDS011;36409;52.168;20.878;2022-11-15T00:36:56;54.80;;;30.50;;
50483;SDS011;36409;52.168;20.878;2022-11-15T00:39:46;49.10;;;30.37;;
50483;SDS011;36409;52.168;20.878;2022-11-15T00:42:36;51.07;;;32.37;;
50483;SDS011;36409;52.168;20.878;2022-11-15T00:45:32;50.33;;;30.87;;
50483;SDS011;36409;52.168;20.878;2022-11-15T00:48:26;47.50;;;29.53;;
50483;SDS011;36409;52.168;20.878;2022-11-15T00:51:16;48.80;;;28.50;;
50483;SDS011;36409;52.168;20.878;2022-11-15T00:54:06;55.70;;;31.73;;
50483;SDS011;36409;52.168;20.878;2022-11-15T00:56:54;52.20;;;31.20;;
50483;SDS011;36409;52.168;20.878;2022-11-15T00:59:42;50.53;;;30.67;;
50483;SDS011;36409;52.168;20.878;2022-11-15T01:02:30;53.17;;;31.13;;
50483;SDS011;36409;52.168;20.878;2022-11-15T01:05:20;51.00;;;31.50;;
50483;SDS011;36409;52.168;20.878;2022-11-15T01:08:12;48.97;;;29.93;;
50483;SDS011;36409;52.168;20.878;2022-11-15T01:11:01;52.17;;;30.53;;
50483;SDS011;36409;52.168;20.878;2022-11-15T01:13:50;50.60;;;29.73;;
50483;SDS011;36409;52.168;20.878;2022-11-15T01:16:41;52.00;;;30.00;;
50483;SDS011;36409;52.168;20.878;2022-11-15T01:19:29;51.87;;;31.13;;
50483;SDS011;36409;52.168;20.878;2022-11-15T01:22:17;53.57;;;31.20;;
50483;SDS011;36409;52.168;20.878;2022-11-15T01:25:08;52.60;;;31.30;;
50483;SDS011;36409;52.168;20.878;2022-11-15T01:27:55;46.93;;;30.60;;
50483;SDS011;36409;52.168;20.878;2022-11-15T01:30:44;50.57;;;30.87;;
50483;SDS011;36409;52.168;20.878;2022-11-15T01:33:34;52.30;;;31.93;;
50483;SDS011;36409;52.168;20.878;2022-11-15T01:36:22;55.27;;;33.73;;
50483;SDS011;36409;52.168;20.878;2022-11-15T01:39:11;62.00;;;36.60;;
50483;SDS011;36409;52.168;20.878;2022-11-15T01:42:03;53.17;;;32.37;;
50483;SDS011;36409;52.168;20.878;2022-11-15T01:45:04;54.65;;;34.60;;
50483;SDS011;36409;52.168;20.878;2022-11-15T01:48:02;54.77;;;33.30;;
50483;SDS011;36409;52.168;20.878;2022-11-15T01:50:58;53.07;;;33.43;;
50483;SDS011;36409;52.168;20.878;2022-11-15T01:53:52;57.23;;;35.17;;
50483;SDS011;36409;52.168;20.878;2022-11-15T01:56:46;55.30;;;34.40;;
50483;SDS011;36409;52.168;20.878;2022-11-15T01:59:39;61.73;;;34.97;;
50483;SDS011;36409;52.168;20.878;2022-11-15T02:02:30;54.30;;;32.83;;
50483;SDS011;36409;52.168;20.878;2022-11-15T02:05:18;59.23;;;34.33;;
50483;SDS011;36409;52.168;20.878;2022-11-15T02:08:21;56.47;;;33.43;;
50483;SDS011;36409;52.168;20.878;2022-11-15T02:11:21;54.87;;;34.47;;
50483;SDS011;36409;52.168;20.878;2022-11-15T02:14:09;55.47;;;34.07;;
50483;SDS011;36409;52.168;20.878;2022-11-15T02:17:01;61.13;;;36.20;;
50483;SDS011;36409;52.168;20.878;2022-11-15T02:20:08;52.97;;;33.33;;
50483;SDS011;36409;52.168;20.878;2022-11-15T02:23:31;54.53;;;32.63;;
50483;SDS011;36409;52.168;20.878;2022-11-15T02:27:01;50.45;;;32.20;;
50483;SDS011;36409;52.168;20.878;2022-11-15T02:30:23;58.20;;;34.33;;
50483;SDS011;36409;52.168;20.878;2022-11-15T02:33:20;54.30;;;34.23;;
50483;SDS011;36409;52.168;20.878;2022-11-15T02:36:22;56.45;;;34.45;;
50483;SDS011;36409;52.168;20.878;2022-11-15T02:39:20;57.50;;;35.33;;
50483;SDS011;36409;52.168;20.878;2022-11-15T02:42:18;60.27;;;35.83;;
50483;SDS011;36409;52.168;20.878;2022-11-15T02:45:30;61.23;;;34.47;;
50483;SDS011;36409;52.168;20.878;2022-11-15T02:48:24;61.07;;;36.23;;
50483;SDS011;36409;52.168;20.878;2022-11-15T02:51:18;63.93;;;35.20;;
50483;SDS011;36409;52.168;20.878;2022-11-15T02:54:05;60.67;;;35.67;;
50483;SDS011;36409;52.168;20.878;2022-11-15T02:56:54;56.70;;;35.90;;
50483;SDS011;36409;52.168;20.878;2022-11-15T03:00:01;56.20;;;33.57;;
50483;SDS011;36409;52.168;20.878;2022-11-15T03:03:08;58.83;;;33.47;;
50483;SDS011;36409;52.168;20.878;2022-11-15T03:06:09;55.87;;;33.67;;
50483;SDS011;36409;52.168;20.878;2022-11-15T03:09:09;54.60;;;33.27;;
50483;SDS011;36409;52.168;20.878;2022-11-15T03:12:05;58.27;;;33.27;;
50483;SDS011;36409;52.168;20.878;2022-11-15T03:15:20;59.10;;;34.93;;
50483;SDS011;36409;52.168;20.878;2022-11-15T03:18:12;60.60;;;34.37;;
50483;SDS011;36409;52.168;20.878;2022-11-15T03:21:08;54.73;;;31.43;;
50483;SDS011;36409;52.168;20.878;2022-11-15T03:23:59;62.27;;;33.20;;
50483;SDS011;36409;52.168;20.878;2022-11-15T03:26:49;62.90;;;32.80;;
50483;SDS011;36409;52.168;20.878;2022-11-15T03:29:43;56.40;;;32.77;;
50483;SDS011;36409;52.168;20.878;2022-11-15T03:32:35;58.33;;;32.13;;
50483;SDS011;36409;52.168;20.878;2022-11-15T03:35:27;65.00;;;34.53;;
50483;SDS011;36409;52.168;20.878;2022-11-15T03:38:21;56.73;;;31.03;;
50483;SDS011;36409;52.168;20.878;2022-11-15T03:41:19;57.03;;;30.90;;
50483;SDS011;36409;52.168;20.878;2022-11-15T03:44:13;58.37;;;32.90;;
50483;SDS011;36409;52.168;20.878;2022-11-15T03:47:08;59.93;;;32.90;;
50483;SDS011;36409;52.168;20.878;2022-11-15T03:50:04;58.77;;;32.53;;
50483;SDS011;36409;52.168;20.878;2022-11-15T03:53:01;60.00;;;31.80;;
50483;SDS011;36409;52.168;20.878;2022-11-15T03:55:49;62.47;;;32.83;;
50483;SDS011;36409;52.168;20.878;2022-11-15T03:58:36;62.27;;;32.17;;
50483;SDS011;36409;52.168;20.878;2022-11-15T04:01:24;59.73;;;32.27;;
50483;SDS011;36409;52.168;20.878;2022-11-15T04:04:16;64.00;;;34.27;;
50483;SDS011;36409;52.168;20.878;2022-11-15T04:07:03;62.17;;;34.00;;
50483;SDS011;36409;52.168;20.878;2022-11-15T04:09:51;60.37;;;31.73;;
50483;SDS011;36409;52.168;20.878;2022-11-15T04:12:52;61.03;;;31.53;;
50483;SDS011;36409;52.168;20.878;2022-11-15T04:15:39;64.27;;;32.43;;
50483;SDS011;36409;52.168;20.878;2022-11-15T04:18:30;60.03;;;30.97;;
50483;SDS011;36409;52.168;20.878;2022-11-15T04:21:24;57.60;;;30.80;;
50483;SDS011;36409;52.168;20.878;2022-11-15T04:24:29;59.13;;;30.97;;
50483;SDS011;36409;52.168;20.878;2022-11-15T04:27:17;59.30;;;31.67;;
50483;SDS011;36409;52.168;20.878;2022-11-15T04:30:08;62.03;;;30.77;;
50483;SDS011;36409;52.168;20.878;2022-11-15T04:32:58;61.53;;;32.53;;
50483;SDS011;36409;52.168;20.878;2022-11-15T04:35:53;62.43;;;32.03;;
50483;SDS011;36409;52.168;20.878;2022-11-15T04:39:10;63.97;;;31.77;;
50483;SDS011;36409;52.168;20.878;2022-11-15T04:41:57;62.27;;;32.70;;
50483;SDS011;36409;52.168;20.878;2022-11-15T04:44:48;60.93;;;30.60;;
50483;SDS011;36409;52.168;20.878;2022-11-15T04:50:39;61.47;;;31.23;;
50483;SDS011;36409;52.168;20.878;2022-11-15T04:53:33;61.03;;;30.57;;
50483;SDS011;36409;52.168;20.878;2022-11-15T04:56:23;55.70;;;29.50;;
50483;SDS011;36409;52.168;20.878;2022-11-15T04:59:10;59.87;;;31.40;;
50483;SDS011;36409;52.168;20.878;2022-11-15T05:02:07;62.05;;;33.10;;
50483;SDS011;36409;52.168;20.878;2022-11-15T05:05:04;64.33;;;31.77;;
50483;SDS011;36409;52.168;20.878;2022-11-15T05:07:53;68.33;;;31.87;;
50483;SDS011;36409;52.168;20.878;2022-11-15T05:10:43;62.53;;;31.93;;
50483;SDS011;36409;52.168;20.878;2022-11-15T05:13:31;60.27;;;29.93;;
50483;SDS011;36409;52.168;20.878;2022-11-15T05:16:19;63.47;;;29.93;;
50483;SDS011;36409;52.168;20.878;2022-11-15T05:19:10;59.27;;;30.20;;
50483;SDS011;36409;52.168;20.878;2022-11-15T05:21:59;57.77;;;28.67;;
50483;SDS011;36409;52.168;20.878;2022-11-15T05:24:50;62.93;;;30.53;;
50483;SDS011;36409;52.168;20.878;2022-11-15T05:27:41;60.17;;;29.10;;
50483;SDS011;36409;52.168;20.878;2022-11-15T05:30:36;64.63;;;30.30;;
50483;SDS011;36409;52.168;20.878;2022-11-15T05:33:24;56.30;;;27.73;;
50483;SDS011;36409;52.168;20.878;2022-11-15T05:36:13;59.20;;;29.17;;
50483;SDS011;36409;52.168;20.878;2022-11-15T05:39:21;60.57;;;28.23;;
50483;SDS011;36409;52.168;20.878;2022-11-15T05:42:20;56.07;;;28.77;;
50483;SDS011;36409;52.168;20.878;2022-11-15T05:45:09;62.90;;;28.40;;
50483;SDS011;36409;52.168;20.878;2022-11-15T05:48:00;50.37;;;27.13;;
50483;SDS011;36409;52.168;20.878;2022-11-15T05:50:52;58.30;;;27.77;;
50483;SDS011;36409;52.168;20.878;2022-11-15T05:53:40;61.93;;;27.67;;
50483;SDS011;36409;52.168;20.878;2022-11-15T05:56:53;60.20;;;27.27;;
50483;SDS011;36409;52.168;20.878;2022-11-15T05:59:53;59.77;;;28.77;;
50483;SDS011;36409;52.168;20.878;2022-11-15T06:02:43;59.30;;;29.90;;
50483;SDS011;36409;52.168;20.878;2022-11-15T06:05:30;60.90;;;30.90;;
50483;SDS011;36409;52.168;20.878;2022-11-15T06:08:21;66.63;;;33.00;;
50483;SDS011;36409;52.168;20.878;2022-11-15T06:11:15;62.35;;;31.75;;
50483;SDS011;36409;52.168;20.878;2022-11-15T06:14:06;55.47;;;28.77;;
50483;SDS011;36409;52.168;20.878;2022-11-15T06:16:56;60.70;;;29.00;;
50483;SDS011;36409;52.168;20.878;2022-11-15T06:19:47;55.40;;;27.45;;
50483;SDS011;36409;52.168;20.878;2022-11-15T06:22:37;47.40;;;23.93;;
50483;SDS011;36409;52.168;20.878;2022-11-15T06:25:25;46.77;;;25.80;;
50483;SDS011;36409;52.168;20.878;2022-11-15T06:28:15;55.63;;;26.23;;
50483;SDS011;36409;52.168;20.878;2022-11-15T06:31:05;55.03;;;27.03;;
50483;SDS011;36409;52.168;20.878;2022-11-15T06:33:59;56.87;;;26.57;;
50483;SDS011;36409;52.168;20.878;2022-11-15T06:36:49;55.37;;;27.07;;
50483;SDS011;36409;52.168;20.878;2022-11-15T06:39:36;53.23;;;27.27;;
50483;SDS011;36409;52.168;20.878;2022-11-15T06:42:24;58.57;;;26.90;;
50483;SDS011;36409;52.168;20.878;2022-11-15T06:45:12;72.83;;;38.90;;
50483;SDS011;36409;52.168;20.878;2022-11-15T06:48:00;152.50;;;91.10;;
50483;SDS011;36409;52.168;20.878;2022-11-15T06:50:50;211.90;;;126.23;;
50483;SDS011;36409;52.168;20.878;2022-11-15T06:53:41;143.57;;;82.73;;
50483;SDS011;36409;52.168;20.878;2022-11-15T06:56:29;131.60;;;74.23;;
50483;SDS011;36409;52.168;20.878;2022-11-15T06:59:17;202.77;;;126.47;;
50483;SDS011;36409;52.168;20.878;2022-11-15T07:02:11;107.10;;;66.43;;
50483;SDS011;36409;52.168;20.878;2022-11-15T07:04:59;53.50;;;28.37;;
50483;SDS011;36409;52.168;20.878;2022-11-15T07:07:51;47.57;;;26.07;;
50483;SDS011;36409;52.168;20.878;2022-11-15T07:10:39;53.77;;;26.90;;
50483;SDS011;36409;52.168;20.878;2022-11-15T07:13:27;58.17;;;26.97;;
50483;SDS011;36409;52.168;20.878;2022-11-15T07:16:19;52.40;;;27.97;;
50483;SDS011;36409;52.168;20.878;2022-11-15T07:19:09;52.10;;;25.63;;
50483;SDS011;36409;52.168;20.878;2022-11-15T07:21:56;54.03;;;25.00;;
50483;SDS011;36409;52.168;20.878;2022-11-15T07:24:44;53.93;;;26.17;;
50483;SDS011;36409;52.168;20.878;2022-11-15T07:27:34;48.20;;;25.73;;
50483;SDS011;36409;52.168;20.878;2022-11-15T07:30:24;44.80;;;23.97;;
50483;SDS011;36409;52.168;20.878;2022-11-15T07:33:18;41.53;;;22.40;;
50483;SDS011;36409;52.168;20.878;2022-11-15T07:36:10;42.20;;;22.53;;
50483;SDS011;36409;52.168;20.878;2022-11-15T07:38:59;41.97;;;21.53;;
50483;SDS011;36409;52.168;20.878;2022-11-15T07:41:50;43.93;;;22.20;;
50483;SDS011;36409;52.168;20.878;2022-11-15T07:44:57;46.97;;;25.90;;
50483;SDS011;36409;52.168;20.878;2022-11-15T07:47:46;56.00;;;29.40;;
50483;SDS011;36409;52.168;20.878;2022-11-15T07:50:37;43.47;;;24.90;;
50483;SDS011;36409;52.168;20.878;2022-11-15T07:53:28;42.57;;;22.70;;
50483;SDS011;36409;52.168;20.878;2022-11-15T07:56:18;40.57;;;21.50;;
50483;SDS011;36409;52.168;20.878;2022-11-15T07:59:08;37.87;;;21.37;;
50483;SDS011;36409;52.168;20.878;2022-11-15T08:02:04;41.47;;;23.13;;
50483;SDS011;36409;52.168;20.878;2022-11-15T08:04:53;39.93;;;22.73;;
50483;SDS011;36409;52.168;20.878;2022-11-15T08:07:42;43.03;;;23.43;;
50483;SDS011;36409;52.168;20.878;2022-11-15T08:10:29;41.33;;;22.80;;
50483;SDS011;36409;52.168;20.878;2022-11-15T08:13:26;49.40;;;25.03;;
50483;SDS011;36409;52.168;20.878;2022-11-15T08:16:15;46.07;;;22.90;;
50483;SDS011;36409;52.168;20.878;2022-11-15T08:19:05;45.23;;;23.73;;
50483;SDS011;36409;52.168;20.878;2022-11-15T08:21:52;40.87;;;23.37;;
50483;SDS011;36409;52.168;20.878;2022-11-15T08:24:40;39.73;;;22.40;;
50483;SDS011;36409;52.168;20.878;2022-11-15T08:27:28;37.63;;;23.67;;
50483;SDS011;36409;52.168;20.878;2022-11-15T08:30:17;42.13;;;24.47;;
50483;SDS011;36409;52.168;20.878;2022-11-15T08:33:05;49.87;;;25.60;;
50483;SDS011;36409;52.168;20.878;2022-11-15T08:35:56;39.40;;;24.35;;
50483;SDS011;36409;52.168;20.878;2022-11-15T08:38:55;44.83;;;22.67;;
50483;SDS011;36409;52.168;20.878;2022-11-15T08:41:43;46.70;;;25.47;;
50483;SDS011;36409;52.168;20.878;2022-11-15T08:44:31;41.93;;;24.63;;
50483;SDS011;36409;52.168;20.878;2022-11-15T08:47:20;48.57;;;26.03;;
50483;SDS011;36409;52.168;20.878;2022-11-15T08:50:08;41.30;;;24.67;;
50483;SDS011;36409;52.168;20.878;2022-11-15T08:52:59;43.10;;;24.30;;
50483;SDS011;36409;52.168;20.878;2022-11-15T08:55:52;38.23;;;21.45;;
50483;SDS011;36409;52.168;20.878;2022-11-15T08:58:45;40.10;;;23.23;;
50483;SDS011;36409;52.168;20.878;2022-11-15T09:01:43;43.53;;;24.40;;
50483;SDS011;36409;52.168;20.878;2022-11-15T09:04:31;40.57;;;22.07;;
50483;SDS011;36409;52.168;20.878;2022-11-15T09:07:28;39.27;;;21.63;;
50483;SDS011;36409;52.168;20.878;2022-11-15T09:10:21;38.63;;;21.20;;
50483;SDS011;36409;52.168;20.878;2022-11-15T09:13:14;42.03;;;23.20;;
50483;SDS011;36409;52.168;20.878;2022-11-15T09:16:02;40.33;;;23.83;;
50483;SDS011;36409;52.168;20.878;2022-11-15T09:18:53;43.40;;;22.63;;
50483;SDS011;36409;52.168;20.878;2022-11-15T09:21:42;37.03;;;22.13;;
50483;SDS011;36409;52.168;20.878;2022-11-15T09:24:30;38.57;;;22.03;;
50483;SDS011;36409;52.168;20.878;2022-11-15T09:27:20;40.55;;;21.60;;
50483;SDS011;36409;52.168;20.878;2022-11-15T09:30:08;37.40;;;21.67;;
50483;SDS011;36409;52.168;20.878;2022-11-15T09:32:57;37.23;;;21.70;;
50483;SDS011;36409;52.168;20.878;2022-11-15T09:35:53;39.60;;;21.80;;
50483;SDS011;36409;52.168;20.878;2022-11-15T09:38:45;41.37;;;22.83;;
50483;SDS011;36409;52.168;20.878;2022-11-15T09:42:04;35.25;;;19.95;;
50483;SDS011;36409;52.168;20.878;2022-11-15T09:45:12;42.63;;;24.10;;
50483;SDS011;36409;52.168;20.878;2022-11-15T09:48:11;37.50;;;21.93;;
50483;SDS011;36409;52.168;20.878;2022-11-15T09:51:12;43.17;;;21.43;;
50483;SDS011;36409;52.168;20.878;2022-11-15T09:56:51;40.93;;;23.23;;
50483;SDS011;36409;52.168;20.878;2022-11-15T09:59:31;38.40;;;22.07;;
50483;SDS011;36409;52.168;20.878;2022-11-15T10:02:14;48.47;;;25.20;;
50483;SDS011;36409;52.168;20.878;2022-11-15T10:05:03;42.40;;;24.80;;
50483;SDS011;36409;52.168;20.878;2022-11-15T10:07:37;43.77;;;24.63;;
50483;SDS011;36409;52.168;20.878;2022-11-15T10:10:20;47.90;;;27.27;;
50483;SDS011;36409;52.168;20.878;2022-11-15T10:12:55;42.63;;;23.87;;
50483;SDS011;36409;52.168;20.878;2022-11-15T10:15:26;43.83;;;25.30;;
50483;SDS011;36409;52.168;20.878;2022-11-15T10:18:12;41.90;;;24.30;;
50483;SDS011;36409;52.168;20.878;2022-11-15T10:20:48;44.13;;;24.20;;
50483;SDS011;36409;52.168;20.878;2022-11-15T10:23:20;41.47;;;24.07;;
50483;SDS011;36409;52.168;20.878;2022-11-15T10:26:00;47.35;;;24.95;;
50483;SDS011;36409;52.168;20.878;2022-11-15T10:28:35;47.30;;;26.23;;
50483;SDS011;36409;52.168;20.878;2022-11-15T10:31:20;42.70;;;25.13;;
50483;SDS011;36409;52.168;20.878;2022-11-15T10:33:56;39.67;;;24.07;;
50483;SDS011;36409;52.168;20.878;2022-11-15T10:36:38;43.27;;;25.37;;
50483;SDS011;36409;52.168;20.878;2022-11-15T10:39:20;51.70;;;25.97;;
50483;SDS011;36409;52.168;20.878;2022-11-15T10:41:53;42.77;;;23.77;;
50483;SDS011;36409;52.168;20.878;2022-11-15T10:44:34;44.40;;;25.63;;
50483;SDS011;36409;52.168;20.878;2022-11-15T10:47:27;38.43;;;23.90;;
50483;SDS011;36409;52.168;20.878;2022-11-15T10:50:07;48.33;;;29.17;;
50483;SDS011;36409;52.168;20.878;2022-11-15T10:52:52;42.30;;;26.53;;
50483;SDS011;36409;52.168;20.878;2022-11-15T10:55:23;46.25;;;25.80;;
50483;SDS011;36409;52.168;20.878;2022-11-15T10:57:55;40.70;;;25.00;;
50483;SDS011;36409;52.168;20.878;2022-11-15T11:00:30;59.40;;;33.47;;
50483;SDS011;36409;52.168;20.878;2022-11-15T11:03:03;59.20;;;33.55;;
50483;SDS011;36409;52.168;20.878;2022-11-15T11:05:42;45.00;;;26.97;;
50483;SDS011;36409;52.168;20.878;2022-11-15T11:08:22;39.20;;;24.03;;
50483;SDS011;36409;52.168;20.878;2022-11-15T11:10:53;41.17;;;24.37;;
50483;SDS011;36409;52.168;20.878;2022-11-15T11:13:30;43.20;;;27.00;;
50483;SDS011;36409;52.168;20.878;2022-11-15T11:16:09;39.50;;;25.60;;
50483;SDS011;36409;52.168;20.878;2022-11-15T11:18:51;42.07;;;24.70;;
50483;SDS011;36409;52.168;20.878;2022-11-15T11:21:35;45.27;;;27.10;;
50483;SDS011;36409;52.168;20.878;2022-11-15T11:24:14;43.53;;;25.90;;
50483;SDS011;36409;52.168;20.878;2022-11-15T11:26:57;39.97;;;25.17;;
50483;SDS011;36409;52.168;20.878;2022-11-15T11:29:51;37.87;;;24.73;;
50483;SDS011;36409;52.168;20.878;2022-11-15T11:32:34;40.47;;;26.47;;
50483;SDS011;36409;52.168;20.878;2022-11-15T11:35:29;52.03;;;33.07;;
50483;SDS011;36409;52.168;20.878;2022-11-15T11:38:07;45.47;;;29.37;;
50483;SDS011;36409;52.168;20.878;2022-11-15T11:40:54;41.07;;;26.13;;
50483;SDS011;36409;52.168;20.878;2022-11-15T11:43:30;40.53;;;25.03;;
50483;SDS011;36409;52.168;20.878;2022-11-15T11:46:17;43.10;;;26.70;;
50483;SDS011;36409;52.168;20.878;2022-11-15T11:51:52;41.93;;;26.20;;
50483;SDS011;36409;52.168;20.878;2022-11-15T11:54:34;45.03;;;28.20;;
50483;SDS011;36409;52.168;20.878;2022-11-15T11:57:15;43.30;;;27.97;;
50483;SDS011;36409;52.168;20.878;2022-11-15T11:59:55;42.63;;;25.87;;
50483;SDS011;36409;52.168;20.878;2022-11-15T12:02:28;38.03;;;24.83;;
50483;SDS011;36409;52.168;20.878;2022-11-15T12:05:17;39.60;;;25.43;;
50483;SDS011;36409;52.168;20.878;2022-11-15T12:07:50;44.23;;;27.07;;
50483;SDS011;36409;52.168;20.878;2022-11-15T12:10:31;42.90;;;25.77;;
50483;SDS011;36409;52.168;20.878;2022-11-15T12:13:04;41.97;;;26.23;;
50483;SDS011;36409;52.168;20.878;2022-11-15T12:18:09;42.70;;;24.63;;
50483;SDS011;36409;52.168;20.878;2022-11-15T12:20:47;49.93;;;27.57;;
50483;SDS011;36409;52.168;20.878;2022-11-15T12:23:24;43.43;;;27.63;;
50483;SDS011;36409;52.168;20.878;2022-11-15T12:25:56;45.63;;;27.80;;
50483;SDS011;36409;52.168;20.878;2022-11-15T12:28:31;46.90;;;28.83;;
50483;SDS011;36409;52.168;20.878;2022-11-15T12:31:26;39.90;;;26.00;;
50483;SDS011;36409;52.168;20.878;2022-11-15T12:34:15;46.93;;;28.03;;
50483;SDS011;36409;52.168;20.878;2022-11-15T12:37:01;49.83;;;29.80;;
50483;SDS011;36409;52.168;20.878;2022-11-15T12:40:18;47.80;;;28.17;;
50483;SDS011;36409;52.168;20.878;2022-11-15T12:43:01;44.17;;;28.33;;
50483;SDS011;36409;52.168;20.878;2022-11-15T12:46:04;49.00;;;28.37;;
50483;SDS011;36409;52.168;20.878;2022-11-15T12:58:11;47.13;;;27.20;;
50483;SDS011;36409;52.168;20.878;2022-11-15T13:00:58;46.37;;;28.17;;
50483;SDS011;36409;52.168;20.878;2022-11-15T13:03:28;50.47;;;29.03;;
50483;SDS011;36409;52.168;20.878;2022-11-15T13:06:01;55.90;;;33.67;;
50483;SDS011;36409;52.168;20.878;2022-11-15T13:17:24;48.07;;;29.47;;
50483;SDS011;36409;52.168;20.878;2022-11-15T13:20:07;50.93;;;30.30;;
50483;SDS011;36409;52.168;20.878;2022-11-15T13:22:47;50.43;;;30.60;;
50483;SDS011;36409;52.168;20.878;2022-11-15T13:28:21;49.37;;;30.17;;
50483;SDS011;36409;52.168;20.878;2022-11-15T13:30:56;54.67;;;31.97;;
50483;SDS011;36409;52.168;20.878;2022-11-15T13:33:32;57.07;;;34.13;;
50483;SDS011;36409;52.168;20.878;2022-11-15T13:36:05;51.10;;;32.10;;
50483;SDS011;36409;52.168;20.878;2022-11-15T13:38:37;63.25;;;33.40;;
50483;SDS011;36409;52.168;20.878;2022-11-15T13:41:17;58.30;;;33.07;;
50483;SDS011;36409;52.168;20.878;2022-11-15T13:43:51;52.80;;;31.03;;
50483;SDS011;36409;52.168;20.878;2022-11-15T13:46:24;67.70;;;39.30;;
50483;SDS011;36409;52.168;20.878;2022-11-15T13:49:10;59.63;;;34.13;;
50483;SDS011;36409;52.168;20.878;2022-11-15T13:51:43;59.73;;;34.93;;
50483;SDS011;36409;52.168;20.878;2022-11-15T13:54:17;59.37;;;33.00;;
50483;SDS011;36409;52.168;20.878;2022-11-15T13:56:52;56.47;;;33.10;;
50483;SDS011;36409;52.168;20.878;2022-11-15T13:59:25;52.73;;;31.57;;
50483;SDS011;36409;52.168;20.878;2022-11-15T14:01:56;55.43;;;32.27;;
50483;SDS011;36409;52.168;20.878;2022-11-15T14:04:29;54.23;;;32.58;;
50483;SDS011;36409;52.168;20.878;2022-11-15T14:07:01;54.93;;;32.07;;
50483;SDS011;36409;52.168;20.878;2022-11-15T14:09:32;54.70;;;32.80;;
50483;SDS011;36409;52.168;20.878;2022-11-15T14:12:23;57.67;;;33.20;;
50483;SDS011;36409;52.168;20.878;2022-11-15T14:14:54;56.77;;;30.87;;
50483;SDS011;36409;52.168;20.878;2022-11-15T14:17:34;56.57;;;32.53;;
50483;SDS011;36409;52.168;20.878;2022-11-15T14:22:58;59.90;;;34.97;;
50483;SDS011;36409;52.168;20.878;2022-11-15T14:25:29;55.27;;;33.07;;
50483;SDS011;36409;52.168;20.878;2022-11-15T14:28:09;55.43;;;32.93;;
50483;SDS011;36409;52.168;20.878;2022-11-15T14:30:40;53.80;;;32.00;;
50483;SDS011;36409;52.168;20.878;2022-11-15T14:33:21;59.97;;;30.73;;
50483;SDS011;36409;52.168;20.878;2022-11-15T14:35:51;58.40;;;33.70;;
50483;SDS011;36409;52.168;20.878;2022-11-15T14:38:23;54.10;;;32.93;;
50483;SDS011;36409;52.168;20.878;2022-11-15T14:40:52;55.90;;;33.07;;
50483;SDS011;36409;52.168;20.878;2022-11-15T14:43:23;53.33;;;32.27;;
50483;SDS011;36409;52.168;20.878;2022-11-15T14:45:51;54.33;;;30.87;;
50483;SDS011;36409;52.168;20.878;2022-11-15T14:48:20;56.77;;;33.63;;
50483;SDS011;36409;52.168;20.878;2022-11-15T14:50:49;58.73;;;33.43;;
50483;SDS011;36409;52.168;20.878;2022-11-15T14:53:20;56.30;;;32.87;;
50483;SDS011;36409;52.168;20.878;2022-11-15T14:55:50;60.30;;;33.37;;
50483;SDS011;36409;52.168;20.878;2022-11-15T14:58:18;60.33;;;33.30;;
50483;SDS011;36409;52.168;20.878;2022-11-15T15:00:47;61.57;;;34.17;;
50483;SDS011;36409;52.168;20.878;2022-11-15T15:03:21;57.83;;;33.43;;
50483;SDS011;36409;52.168;20.878;2022-11-15T15:05:50;60.30;;;33.70;;
50483;SDS011;36409;52.168;20.878;2022-11-15T15:08:20;60.97;;;35.07;;
50483;SDS011;36409;52.168;20.878;2022-11-15T15:10:51;57.70;;;33.20;;
50483;SDS011;36409;52.168;20.878;2022-11-15T15:13:20;61.13;;;35.33;;
50483;SDS011;36409;52.168;20.878;2022-11-15T15:15:50;68.10;;;34.87;;
50483;SDS011;36409;52.168;20.878;2022-11-15T15:18:20;57.20;;;33.83;;
50483;SDS011;36409;52.168;20.878;2022-11-15T15:20:53;62.77;;;35.87;;
50483;SDS011;36409;52.168;20.878;2022-11-15T15:23:24;68.17;;;37.00;;
50483;SDS011;36409;52.168;20.878;2022-11-15T15:25:56;70.50;;;37.47;;
50483;SDS011;36409;52.168;20.878;2022-11-15T15:28:30;65.40;;;36.73;;
50483;SDS011;36409;52.168;20.878;2022-11-15T15:31:02;67.17;;;36.73;;
50483;SDS011;36409;52.168;20.878;2022-11-15T15:33:31;66.53;;;37.23;;
50483;SDS011;36409;52.168;20.878;2022-11-15T15:36:00;67.10;;;35.83;;
50483;SDS011;36409;52.168;20.878;2022-11-15T15:38:28;61.47;;;34.83;;
50483;SDS011;36409;52.168;20.878;2022-11-15T15:40:58;59.43;;;34.03;;
50483;SDS011;36409;52.168;20.878;2022-11-15T15:43:28;58.30;;;32.77;;
50483;SDS011;36409;52.168;20.878;2022-11-15T15:46:00;58.00;;;33.13;;
50483;SDS011;36409;52.168;20.878;2022-11-15T15:48:28;59.77;;;34.37;;
50483;SDS011;36409;52.168;20.878;2022-11-15T15:50:58;64.87;;;35.20;;
50483;SDS011;36409;52.168;20.878;2022-11-15T15:53:27;60.77;;;34.37;;
50483;SDS011;36409;52.168;20.878;2022-11-15T15:55:57;69.80;;;35.97;;
50483;SDS011;36409;52.168;20.878;2022-11-15T15:58:26;61.20;;;33.77;;
50483;SDS011;36409;52.168;20.878;2022-11-15T16:00:56;59.53;;;34.30;;
50483;SDS011;36409;52.168;20.878;2022-11-15T16:03:26;61.83;;;34.73;;
50483;SDS011;36409;52.168;20.878;2022-11-15T16:05:55;65.60;;;35.27;;
50483;SDS011;36409;52.168;20.878;2022-11-15T16:08:25;65.87;;;34.83;;
50483;SDS011;36409;52.168;20.878;2022-11-15T16:11:20;62.75;;;34.65;;
50483;SDS011;36409;52.168;20.878;2022-11-15T16:13:52;64.43;;;36.00;;
50483;SDS011;36409;52.168;20.878;2022-11-15T16:16:21;69.90;;;36.90;;
50483;SDS011;36409;52.168;20.878;2022-11-15T16:19:01;64.67;;;33.93;;
50483;SDS011;36409;52.168;20.878;2022-11-15T16:21:30;64.97;;;34.73;;
50483;SDS011;36409;52.168;20.878;2022-11-15T16:23:59;65.50;;;33.17;;
50483;SDS011;36409;52.168;20.878;2022-11-15T16:26:31;66.83;;;35.73;;
50483;SDS011;36409;52.168;20.878;2022-11-15T16:29:04;63.60;;;33.53;;
50483;SDS011;36409;52.168;20.878;2022-11-15T16:31:39;65.60;;;33.57;;
50483;SDS011;36409;52.168;20.878;2022-11-15T16:34:08;67.05;;;36.40;;